Time;durP1;ratioP1;P1;durP2;ratioP2;P2;SDS_P1;SDS_P2;PMS_P1;PMS_P2;Temp;Humidity;BMP_temperature;BMP_pressure;BME280_temperature;BME280_humidity;BME280_pressure;Samples;Min_cycle;Max_cycle;Signal;HPM_P1;HPM_P2
2023/12/19 00:01:33;;;;;;;69.93;29.60;;;6.30;99.90;;;;;;5014431;28;20026;-72
2023/12/19 00:03:58;;;;;;;66.65;30.52;;;6.30;99.90;;;;;;5012419;28;20169;-73
2023/12/19 00:06:24;;;;;;;66.75;29.50;;;6.30;99.90;;;;;;5014268;28;20036;-72
2023/12/19 00:08:50;;;;;;;63.20;28.83;;;6.30;99.90;;;;;;5013808;28;20049;-72
2023/12/19 00:11:16;;;;;;;62.70;27.90;;;6.30;99.90;;;;;;5012890;28;20021;-72
2023/12/19 00:13:41;;;;;;;71.78;28.70;;;6.30;99.90;;;;;;5013521;28;20040;-72
2023/12/19 00:16:07;;;;;;;60.72;28.45;;;6.30;99.90;;;;;;5014108;28;20022;-72
2023/12/19 00:18:33;;;;;;;62.38;28.45;;;6.40;99.90;;;;;;5014059;28;20110;-72
2023/12/19 00:20:58;;;;;;;70.60;31.08;;;6.30;99.90;;;;;;5013771;28;20119;-72
2023/12/19 00:23:26;;;;;;;62.13;28.70;;;6.40;99.90;;;;;;5013682;28;20053;-72
2023/12/19 00:25:51;;;;;;;77.22;31.42;;;6.40;99.90;;;;;;5012186;28;20812;-73
2023/12/19 00:28:17;;;;;;;76.60;32.47;;;6.40;99.90;;;;;;5013344;28;20025;-72
2023/12/19 00:30:43;;;;;;;79.28;30.15;;;6.40;99.90;;;;;;5013750;28;20017;-72
2023/12/19 00:33:11;;;;;;;62.47;27.13;;;6.40;99.90;;;;;;5013715;28;20030;-72
2023/12/19 00:35:37;;;;;;;70.00;28.45;;;6.40;99.90;;;;;;5013396;28;20033;-72
2023/12/19 00:38:06;;;;;;;72.57;30.75;;;6.40;99.90;;;;;;5013451;28;20034;-72
2023/12/19 00:40:32;;;;;;;83.43;30.58;;;6.40;99.90;;;;;;5013505;28;20037;-72
2023/12/19 00:42:57;;;;;;;74.20;30.40;;;6.40;99.90;;;;;;5013009;28;20053;-72
2023/12/19 00:45:23;;;;;;;79.53;30.10;;;6.40;99.90;;;;;;5013285;28;20041;-72
2023/12/19 00:47:48;;;;;;;88.50;31.80;;;6.40;99.90;;;;;;5013045;28;20041;-72
2023/12/19 00:50:15;;;;;;;80.78;31.20;;;6.40;99.90;;;;;;5013386;28;20227;-72
2023/12/19 00:52:42;;;;;;;90.50;33.65;;;6.40;99.90;;;;;;5013093;28;20032;-73
2023/12/19 00:55:07;;;;;;;69.95;30.15;;;6.40;99.90;;;;;;5013052;28;20136;-73
2023/12/19 00:57:33;;;;;;;77.10;30.35;;;6.40;99.90;;;;;;5012960;28;20057;-73
2023/12/19 00:59:59;;;;;;;76.43;30.30;;;6.40;99.90;;;;;;5012823;28;20030;-72
2023/12/19 01:02:25;;;;;;;86.85;32.13;;;6.40;99.90;;;;;;5013440;28;20121;-72
2023/12/19 01:04:50;;;;;;;91.40;33.25;;;6.40;99.90;;;;;;5012687;28;20377;-73
2023/12/19 01:07:16;;;;;;;88.40;32.65;;;6.40;99.90;;;;;;5011726;28;20117;-72
2023/12/19 01:09:42;;;;;;;87.32;32.72;;;6.50;99.90;;;;;;5011962;28;20022;-72
2023/12/19 01:12:07;;;;;;;83.30;31.58;;;6.50;99.90;;;;;;5013099;28;20101;-72
2023/12/19 01:14:33;;;;;;;80.47;30.77;;;6.40;99.90;;;;;;5012720;28;20483;-72
2023/12/19 01:16:59;;;;;;;84.72;31.80;;;6.50;99.90;;;;;;5011450;28;20030;-73
2023/12/19 01:19:24;;;;;;;75.00;28.67;;;6.50;99.90;;;;;;5012593;28;20037;-72
2023/12/19 01:21:50;;;;;;;77.95;29.08;;;6.50;99.90;;;;;;5012775;28;20025;-73
2023/12/19 01:24:16;;;;;;;89.03;32.38;;;6.50;99.90;;;;;;5012360;28;20037;-72
2023/12/19 01:26:42;;;;;;;84.38;30.25;;;6.50;99.90;;;;;;5012488;28;20144;-73
2023/12/19 01:29:07;;;;;;;90.15;33.30;;;6.50;99.90;;;;;;5012219;28;20072;-72
2023/12/19 01:31:35;;;;;;;75.15;31.50;;;6.50;99.90;;;;;;5012580;28;20456;-73
2023/12/19 01:34:04;;;;;;;81.25;31.08;;;6.60;99.90;;;;;;5012291;28;20025;-72
2023/12/19 01:36:30;;;;;;;81.55;31.80;;;6.60;99.90;;;;;;5012637;28;20086;-73
2023/12/19 01:38:55;;;;;;;68.60;29.08;;;6.60;99.90;;;;;;5012110;28;20065;-73
2023/12/19 01:41:27;;;;;;;73.78;31.42;;;6.60;99.90;;;;;;5012467;28;20026;-73
2023/12/19 01:44:02;;;;;;;89.85;31.60;;;6.60;99.90;;;;;;5011651;28;20132;-72
2023/12/19 01:46:27;;;;;;;76.00;30.45;;;6.60;99.90;;;;;;5012419;28;20032;-73
2023/12/19 01:48:54;;;;;;;80.70;30.83;;;6.60;99.90;;;;;;5011899;28;20097;-72
2023/12/19 01:51:21;;;;;;;76.80;31.02;;;6.60;99.90;;;;;;5012479;28;20017;-73
2023/12/19 01:53:48;;;;;;;83.95;32.00;;;6.70;99.90;;;;;;5011755;28;20022;-73
2023/12/19 01:56:18;;;;;;;73.05;30.80;;;6.70;99.90;;;;;;5012158;28;20022;-73
2023/12/19 01:58:45;;;;;;;75.28;29.90;;;6.70;99.90;;;;;;5011813;28;20022;-72
2023/12/19 02:01:12;;;;;;;76.70;30.80;;;6.70;99.90;;;;;;5012453;28;20022;-72
2023/12/19 02:03:39;;;;;;;81.25;31.40;;;6.70;99.90;;;;;;5011650;28;20547;-73
2023/12/19 02:06:08;;;;;;;66.18;29.23;;;6.70;99.90;;;;;;4998270;28;20030;-73
2023/12/19 02:08:34;;;;;;;75.07;29.30;;;6.70;99.90;;;;;;5011897;28;20025;-73
2023/12/19 02:11:00;;;;;;;75.25;30.23;;;6.70;99.90;;;;;;5010485;28;20025;-73
2023/12/19 02:13:26;;;;;;;71.53;28.05;;;6.70;99.90;;;;;;5011997;28;20029;-72
2023/12/19 02:15:51;;;;;;;87.97;31.38;;;6.70;99.90;;;;;;5011822;28;20029;-72
2023/12/19 02:18:19;;;;;;;75.40;30.65;;;6.70;99.90;;;;;;5011984;28;20033;-72
2023/12/19 02:20:45;;;;;;;92.85;33.42;;;6.70;99.90;;;;;;5009551;28;20077;-72
2023/12/19 02:23:12;;;;;;;81.72;32.20;;;6.70;99.90;;;;;;5011626;28;20054;-72
2023/12/19 02:25:38;;;;;;;86.68;31.08;;;6.70;99.90;;;;;;5011669;28;20049;-73
2023/12/19 02:28:04;;;;;;;94.30;32.70;;;6.80;99.90;;;;;;5011667;28;20024;-73
2023/12/19 02:30:36;;;;;;;86.72;32.78;;;6.70;99.90;;;;;;5011741;28;20469;-72
2023/12/19 02:33:03;;;;;;;88.00;33.67;;;6.80;99.90;;;;;;5010300;28;20030;-72
2023/12/19 02:35:32;;;;;;;87.78;32.03;;;6.80;99.90;;;;;;5011234;28;20026;-72
2023/12/19 02:37:58;;;;;;;99.07;33.38;;;6.80;99.90;;;;;;5011334;28;20030;-72
2023/12/19 02:40:24;;;;;;;88.03;32.85;;;6.80;99.90;;;;;;5011422;28;20030;-71
2023/12/19 02:42:49;;;;;;;89.28;32.60;;;6.80;99.90;;;;;;5010008;28;20058;-71
2023/12/19 02:45:15;;;;;;;96.55;31.80;;;6.80;99.90;;;;;;5011998;28;20114;-72
2023/12/19 02:47:41;;;;;;;95.53;31.92;;;6.80;99.90;;;;;;5011884;28;20476;-72
2023/12/19 02:50:08;;;;;;;93.72;34.25;;;6.80;99.90;;;;;;5011465;28;20922;-72
2023/12/19 02:52:33;;;;;;;96.40;32.60;;;6.80;99.90;;;;;;5011857;28;20049;-72
2023/12/19 02:54:59;;;;;;;101.72;33.70;;;6.70;99.90;;;;;;5011120;28;20275;-72
2023/12/19 02:57:25;;;;;;;103.30;32.85;;;6.80;99.90;;;;;;5011548;28;20075;-72
2023/12/19 02:59:50;;;;;;;101.60;32.97;;;6.80;99.90;;;;;;5011177;28;20068;-72
2023/12/19 03:02:16;;;;;;;89.15;30.73;;;6.80;99.90;;;;;;5010189;28;20085;-72
2023/12/19 03:04:42;;;;;;;95.18;31.83;;;6.80;99.90;;;;;;5011128;28;20026;-72
2023/12/19 03:07:09;;;;;;;99.95;31.17;;;6.80;99.90;;;;;;5011332;28;20029;-72
2023/12/19 03:09:38;;;;;;;85.82;30.65;;;6.80;99.90;;;;;;5011192;28;20018;-72
2023/12/19 03:12:07;;;;;;;94.40;32.75;;;6.80;99.90;;;;;;5011517;28;20014;-72
2023/12/19 03:14:35;;;;;;;104.13;34.10;;;6.90;99.90;;;;;;5011357;28;20021;-72
2023/12/19 03:17:04;;;;;;;99.90;32.83;;;6.80;99.90;;;;;;5011414;28;20034;-72
2023/12/19 03:19:30;;;;;;;109.68;34.58;;;6.80;99.90;;;;;;5011043;28;20029;-72
2023/12/19 03:21:56;;;;;;;92.35;30.85;;;6.90;99.90;;;;;;5011219;28;20022;-72
2023/12/19 03:24:22;;;;;;;88.45;32.72;;;6.80;99.90;;;;;;5009532;28;20072;-72
2023/12/19 03:26:48;;;;;;;91.85;32.63;;;6.90;99.90;;;;;;5011254;28;20014;-72
2023/12/19 03:29:14;;;;;;;91.32;32.28;;;6.90;99.90;;;;;;5009682;28;20030;-72
2023/12/19 03:31:42;;;;;;;81.75;30.40;;;6.90;99.90;;;;;;5011205;28;20079;-73
2023/12/19 03:34:10;;;;;;;90.25;33.45;;;6.90;99.90;;;;;;5014180;28;20053;-73
2023/12/19 03:36:36;;;;;;;84.85;31.25;;;6.90;99.90;;;;;;5014554;28;20030;-72
2023/12/19 03:39:02;;;;;;;76.90;29.38;;;6.90;99.90;;;;;;5014592;28;20033;-72
2023/12/19 03:41:27;;;;;;;77.53;30.17;;;6.90;99.90;;;;;;5014539;28;20018;-72
2023/12/19 03:43:53;;;;;;;72.35;27.40;;;7.00;99.90;;;;;;5012838;28;20053;-72
2023/12/19 03:46:19;;;;;;;64.35;27.35;;;7.00;99.90;;;;;;5014879;28;20471;-73
2023/12/19 03:48:45;;;;;;;68.28;26.27;;;7.00;99.90;;;;;;5014265;28;20267;-72
2023/12/19 03:51:13;;;;;;;61.28;26.33;;;7.00;99.90;;;;;;5014383;28;20022;-72
2023/12/19 03:53:39;;;;;;;61.38;26.30;;;7.00;99.90;;;;;;5014492;28;20060;-72
2023/12/19 03:56:06;;;;;;;46.65;22.60;;;7.00;99.90;;;;;;5012770;28;20230;-72
2023/12/19 03:58:39;;;;;;;55.88;25.10;;;7.00;99.90;;;;;;5014135;28;20030;-70
2023/12/19 04:01:05;;;;;;;52.22;23.42;;;7.00;99.90;;;;;;5014423;28;20484;-71
2023/12/19 04:03:33;;;;;;;55.22;22.70;;;7.00;99.90;;;;;;5013935;28;20032;-71
2023/12/19 04:05:59;;;;;;;51.78;21.98;;;7.00;99.90;;;;;;5013350;28;20033;-71
2023/12/19 04:08:25;;;;;;;45.40;21.52;;;7.00;99.90;;;;;;5012971;28;20022;-71
2023/12/19 04:10:50;;;;;;;48.88;22.75;;;7.00;99.90;;;;;;5013814;28;20580;-71
2023/12/19 04:13:16;;;;;;;45.47;22.55;;;7.10;99.90;;;;;;5014192;28;20018;-71
2023/12/19 04:15:41;;;;;;;45.33;22.38;;;7.10;99.90;;;;;;5013426;28;20507;-71
2023/12/19 04:18:10;;;;;;;50.40;23.35;;;7.00;99.90;;;;;;5014199;28;20022;-71
2023/12/19 04:20:35;;;;;;;54.35;22.70;;;7.00;99.90;;;;;;5012121;28;20026;-72
2023/12/19 04:23:01;;;;;;;45.40;21.98;;;7.00;99.90;;;;;;5014111;28;20392;-71
2023/12/19 04:25:27;;;;;;;39.05;20.13;;;7.00;99.90;;;;;;5013738;28;20029;-71
2023/12/19 04:27:52;;;;;;;49.92;22.35;;;7.00;99.90;;;;;;5013867;28;20018;-72
2023/12/19 04:30:18;;;;;;;46.22;20.80;;;7.00;99.90;;;;;;5013347;28;20060;-71
2023/12/19 04:32:44;;;;;;;47.70;22.65;;;7.00;99.90;;;;;;5013554;28;20089;-71
2023/12/19 04:35:10;;;;;;;48.60;21.38;;;7.10;99.90;;;;;;5013343;28;20024;-71
2023/12/19 04:37:35;;;;;;;48.22;20.60;;;7.10;99.90;;;;;;5013570;28;20122;-71
2023/12/19 04:40:02;;;;;;;41.20;19.65;;;7.10;99.90;;;;;;5013274;28;20037;-71
2023/12/19 04:42:28;;;;;;;44.17;20.70;;;7.10;99.90;;;;;;5012089;28;20037;-71
2023/12/19 04:44:54;;;;;;;47.42;21.65;;;7.10;99.90;;;;;;5012243;28;20029;-72
2023/12/19 04:47:23;;;;;;;45.05;20.15;;;7.10;99.90;;;;;;5013430;28;20021;-70
2023/12/19 04:49:48;;;;;;;44.60;19.15;;;7.10;99.90;;;;;;5012766;28;20026;-71
2023/12/19 04:52:14;;;;;;;46.22;19.98;;;7.10;99.90;;;;;;5013601;28;20598;-70
2023/12/19 04:54:40;;;;;;;41.65;18.38;;;7.10;99.90;;;;;;5013205;28;20022;-71
2023/12/19 04:57:06;;;;;;;36.92;18.33;;;7.10;99.90;;;;;;5013392;28;20030;-71
2023/12/19 04:59:32;;;;;;;37.70;17.85;;;7.20;99.90;;;;;;5013090;28;20085;-71
2023/12/19 05:01:57;;;;;;;41.17;17.95;;;7.20;99.90;;;;;;5013362;28;20123;-70
2023/12/19 05:04:23;;;;;;;35.38;17.27;;;7.10;99.90;;;;;;5012993;28;20090;-70
2023/12/19 05:06:49;;;;;;;34.70;16.80;;;7.10;99.90;;;;;;5013098;28;20033;-71
2023/12/19 05:09:14;;;;;;;37.95;16.52;;;7.10;99.90;;;;;;5012921;28;20014;-70
2023/12/19 05:11:44;;;;;;;40.00;18.63;;;7.10;99.90;;;;;;5012977;28;20025;-70
2023/12/19 05:14:15;;;;;;;38.10;17.48;;;7.20;99.90;;;;;;5012771;28;20038;-71
2023/12/19 05:16:41;;;;;;;45.22;18.92;;;7.10;99.90;;;;;;5011469;28;20076;-70
2023/12/19 05:19:06;;;;;;;49.15;18.90;;;7.10;99.90;;;;;;5012938;28;20444;-71
2023/12/19 05:21:39;;;;;;;45.92;19.00;;;7.20;99.90;;;;;;5013043;28;20384;-71
2023/12/19 05:24:05;;;;;;;49.75;20.92;;;7.20;99.90;;;;;;5011324;28;20026;-70
2023/12/19 05:26:30;;;;;;;48.67;20.15;;;7.20;99.90;;;;;;5012655;28;20029;-70
2023/12/19 05:28:56;;;;;;;50.35;22.25;;;7.20;99.90;;;;;;5012513;28;20022;-70
2023/12/19 05:31:22;;;;;;;53.38;21.40;;;7.20;99.90;;;;;;5012384;28;20030;-70
2023/12/19 05:33:48;;;;;;;54.45;21.63;;;7.20;99.90;;;;;;5012297;28;20033;-71
2023/12/19 05:36:13;;;;;;;52.45;21.52;;;7.30;99.90;;;;;;5012460;28;20034;-71
2023/12/19 05:38:39;;;;;;;49.28;21.35;;;7.30;99.90;;;;;;5012641;28;20030;-70
2023/12/19 05:41:05;;;;;;;60.83;22.52;;;7.30;99.90;;;;;;5012335;28;20037;-70
2023/12/19 05:43:31;;;;;;;57.20;22.35;;;7.30;99.90;;;;;;5012339;28;20565;-70
2023/12/19 05:45:57;;;;;;;44.78;20.52;;;7.30;99.90;;;;;;5012042;28;20052;-70
2023/12/19 05:48:23;;;;;;;52.13;22.15;;;7.30;99.90;;;;;;5012718;28;20033;-70
2023/12/19 05:50:49;;;;;;;51.65;21.63;;;7.30;99.90;;;;;;5012269;28;20017;-70
2023/12/19 05:53:15;;;;;;;57.03;24.15;;;7.30;99.90;;;;;;5012485;28;20053;-70
2023/12/19 05:55:45;;;;;;;61.03;24.33;;;7.30;99.90;;;;;;5011578;28;20368;-69
2023/12/19 05:58:10;;;;;;;55.67;23.90;;;7.40;99.90;;;;;;5012471;28;20053;-70
2023/12/19 06:00:36;;;;;;;62.85;23.90;;;7.40;99.90;;;;;;5011697;28;20041;-69
2023/12/19 06:03:02;;;;;;;63.90;25.50;;;7.40;99.90;;;;;;5012092;28;20076;-69
2023/12/19 06:05:28;;;;;;;66.63;24.55;;;7.40;99.90;;;;;;5011815;28;20081;-69
2023/12/19 06:07:53;;;;;;;62.05;23.77;;;7.50;99.90;;;;;;5010574;28;20022;-69
2023/12/19 06:10:19;;;;;;;67.68;24.67;;;7.50;99.90;;;;;;5012008;28;20022;-69
2023/12/19 06:12:44;;;;;;;64.57;24.73;;;7.50;99.90;;;;;;5011921;28;20095;-69
2023/12/19 06:15:13;;;;;;;59.75;24.77;;;7.50;99.90;;;;;;5010407;28;20030;-69
2023/12/19 06:17:46;;;;;;;52.65;23.52;;;7.50;99.90;;;;;;5010264;28;20117;-70
2023/12/19 06:20:12;;;;;;;63.60;24.50;;;7.50;99.90;;;;;;5011826;28;20037;-69
2023/12/19 06:22:39;;;;;;;58.83;24.83;;;7.50;99.90;;;;;;5011999;28;20057;-70
2023/12/19 06:25:06;;;;;;;62.78;24.63;;;7.60;99.90;;;;;;5011545;28;20488;-70
2023/12/19 06:27:35;;;;;;;61.75;24.48;;;7.60;99.90;;;;;;5011801;28;20112;-70
2023/12/19 06:30:05;;;;;;;63.97;25.60;;;7.60;99.90;;;;;;5011452;28;20014;-69
2023/12/19 06:32:31;;;;;;;59.38;24.45;;;7.60;99.90;;;;;;5011837;28;20032;-69
2023/12/19 06:35:02;;;;;;;69.85;26.30;;;7.60;99.90;;;;;;5011301;28;20022;-69
2023/12/19 06:37:27;;;;;;;65.83;26.40;;;7.60;99.90;;;;;;5011951;28;20026;-69
2023/12/19 06:39:53;;;;;;;58.05;24.67;;;7.60;99.90;;;;;;5011093;28;20272;-69
2023/12/19 06:42:18;;;;;;;58.13;24.65;;;7.60;99.90;;;;;;5011413;28;20096;-70
2023/12/19 06:44:45;;;;;;;65.30;26.83;;;7.60;99.90;;;;;;5011088;28;20502;-70
2023/12/19 06:47:11;;;;;;;65.63;27.13;;;7.60;99.90;;;;;;5003070;28;20077;-70
2023/12/19 06:49:40;;;;;;;61.15;25.40;;;7.60;99.90;;;;;;5009461;28;20018;-70
2023/12/19 06:52:06;;;;;;;63.45;26.23;;;7.60;99.90;;;;;;5011511;28;20026;-68
2023/12/19 06:54:35;;;;;;;62.65;26.00;;;7.60;99.90;;;;;;5010034;28;20549;-68
2023/12/19 06:57:01;;;;;;;59.80;24.50;;;7.60;99.90;;;;;;5011613;28;20497;-70
2023/12/19 06:59:27;;;;;;;59.97;25.77;;;7.60;99.90;;;;;;5011128;28;20025;-70
2023/12/19 07:01:56;;;;;;;62.00;25.42;;;7.60;99.90;;;;;;5009789;28;20022;-70
2023/12/19 07:04:21;;;;;;;55.78;26.65;;;7.60;99.90;;;;;;5002246;28;20053;-68
2023/12/19 07:06:47;;;;;;;65.97;27.15;;;7.70;99.90;;;;;;5014656;28;20034;-69
2023/12/19 07:09:14;;;;;;;59.03;25.45;;;7.60;99.90;;;;;;5013711;28;20293;-69
2023/12/19 07:11:41;;;;;;;68.70;26.83;;;7.70;99.90;;;;;;5015342;28;20018;-68
2023/12/19 07:14:07;;;;;;;62.90;27.67;;;7.70;99.90;;;;;;5015113;28;20026;-70
2023/12/19 07:16:33;;;;;;;79.57;29.00;;;7.70;99.90;;;;;;5011422;28;20084;-70
2023/12/19 07:19:00;;;;;;;68.90;28.35;;;7.70;99.90;;;;;;5014285;28;20106;-70
2023/12/19 07:21:31;;;;;;;66.80;28.10;;;7.70;99.90;;;;;;5013146;28;20076;-70
2023/12/19 07:23:58;;;;;;;72.82;27.88;;;7.70;99.90;;;;;;5014169;28;20085;-70
2023/12/19 07:26:28;;;;;;;69.63;27.25;;;7.70;99.90;;;;;;5014592;28;20061;-69
2023/12/19 07:28:58;;;;;;;70.82;28.77;;;7.70;99.90;;;;;;5019431;28;20026;-70
2023/12/19 07:31:27;;;;;;;72.90;30.40;;;7.70;99.90;;;;;;5013555;28;20026;-69
2023/12/19 07:33:57;;;;;;;72.72;29.95;;;7.70;99.90;;;;;;5014446;28;20029;-69
2023/12/19 07:36:24;;;;;;;87.53;32.80;;;7.70;99.90;;;;;;5013588;28;20502;-70
2023/12/19 07:38:50;;;;;;;94.00;32.55;;;7.70;99.90;;;;;;5009483;28;20022;-70
2023/12/19 07:41:16;;;;;;;88.15;34.58;;;7.70;99.90;;;;;;5003478;28;20051;-70
2023/12/19 07:43:42;;;;;;;94.22;35.60;;;7.80;99.90;;;;;;5008958;28;20191;-70
2023/12/19 07:46:07;;;;;;;89.53;34.67;;;7.80;99.90;;;;;;5005201;28;20030;-70
2023/12/19 07:48:33;;;;;;;88.70;33.63;;;7.80;99.90;;;;;;5011726;28;20464;-70
2023/12/19 07:50:59;;;;;;;93.38;36.85;;;7.80;99.90;;;;;;5010035;28;20530;-71
2023/12/19 07:53:26;;;;;;;98.38;37.40;;;7.80;99.90;;;;;;5018496;28;20030;-70
2023/12/19 07:55:52;;;;;;;92.43;34.67;;;7.80;99.90;;;;;;5008253;28;20639;-70
2023/12/19 07:58:17;;;;;;;93.53;35.75;;;7.80;99.90;;;;;;5008730;28;20037;-71
2023/12/19 08:00:49;;;;;;;90.05;37.10;;;7.80;99.90;;;;;;5006109;28;20033;-72
2023/12/19 08:03:15;;;;;;;92.47;36.83;;;7.80;99.90;;;;;;5003052;28;20271;-72
2023/12/19 08:05:50;;;;;;;95.75;34.97;;;7.90;99.90;;;;;;4998074;28;20099;-72
2023/12/19 08:08:18;;;;;;;97.32;35.95;;;7.90;99.90;;;;;;5017786;28;20811;-72
2023/12/19 08:10:45;;;;;;;88.03;36.13;;;7.80;99.90;;;;;;5011721;28;20026;-71
2023/12/19 08:13:11;;;;;;;93.05;36.25;;;7.90;99.90;;;;;;5008034;28;20018;-71
2023/12/19 08:15:37;;;;;;;87.72;34.47;;;7.90;99.90;;;;;;5008486;28;20049;-72
2023/12/19 08:18:03;;;;;;;84.10;34.55;;;7.90;99.90;;;;;;5009234;28;20732;-72
2023/12/19 08:20:28;;;;;;;103.03;36.90;;;7.90;99.90;;;;;;5008997;28;20083;-72
2023/12/19 08:22:54;;;;;;;86.20;36.40;;;7.90;99.90;;;;;;5016767;28;20041;-71
2023/12/19 08:25:20;;;;;;;93.65;35.45;;;8.00;99.90;;;;;;5012150;28;20056;-71
2023/12/19 08:27:46;;;;;;;82.38;34.22;;;8.00;99.90;;;;;;5021685;28;20159;-72
2023/12/19 08:30:12;;;;;;;82.70;35.65;;;8.00;99.90;;;;;;5006778;28;20120;-72
2023/12/19 08:32:38;;;;;;;82.10;34.70;;;8.00;99.90;;;;;;5001412;28;20480;-72
2023/12/19 08:35:06;;;;;;;81.05;34.35;;;8.00;99.90;;;;;;5008615;28;20447;-71
2023/12/19 08:37:31;;;;;;;83.40;33.35;;;8.00;99.90;;;;;;5018048;28;20029;-72
2023/12/19 08:40:02;;;;;;;82.28;34.15;;;8.10;99.90;;;;;;5007905;28;20036;-71
2023/12/19 08:42:28;;;;;;;80.72;33.80;;;8.10;99.90;;;;;;5005913;28;20124;-72
2023/12/19 08:44:55;;;;;;;81.60;34.35;;;8.10;99.90;;;;;;5006299;28;20618;-72
2023/12/19 08:47:21;;;;;;;81.82;34.15;;;8.10;99.90;;;;;;5012335;28;20018;-71
2023/12/19 08:49:47;;;;;;;84.53;35.50;;;8.10;99.90;;;;;;5006094;28;20029;-71
2023/12/19 08:52:13;;;;;;;86.68;33.17;;;8.10;99.90;;;;;;5007237;28;20014;-71
2023/12/19 08:54:40;;;;;;;77.70;32.90;;;8.10;99.90;;;;;;5003837;28;20467;-71
2023/12/19 08:57:05;;;;;;;69.70;32.25;;;8.10;99.90;;;;;;5012014;28;20377;-71
2023/12/19 08:59:31;;;;;;;77.72;32.35;;;8.20;99.90;;;;;;5007697;28;20030;-71
2023/12/19 09:01:57;;;;;;;85.50;32.08;;;8.20;99.90;;;;;;5006186;28;20030;-71
2023/12/19 09:04:23;;;;;;;70.45;29.98;;;8.20;99.90;;;;;;4992995;28;20022;-71
2023/12/19 09:06:49;;;;;;;65.10;29.60;;;8.20;99.90;;;;;;4991512;28;20124;-71
2023/12/19 09:09:15;;;;;;;64.50;30.13;;;8.20;99.90;;;;;;5004550;28;20025;-71
2023/12/19 09:11:41;;;;;;;63.13;28.95;;;8.20;99.90;;;;;;5003834;28;20014;-71
2023/12/19 09:14:07;;;;;;;55.25;26.33;;;8.20;99.90;;;;;;5007124;28;20029;-71
2023/12/19 09:16:33;;;;;;;59.75;26.75;;;8.20;99.90;;;;;;5007334;28;20510;-71
2023/12/19 09:19:02;;;;;;;63.35;29.05;;;8.20;99.90;;;;;;5005795;28;20026;-71
2023/12/19 09:21:27;;;;;;;51.65;25.33;;;8.20;99.90;;;;;;5002586;28;20123;-71
2023/12/19 09:23:53;;;;;;;50.78;25.27;;;8.20;99.90;;;;;;5002779;28;20061;-71
2023/12/19 09:26:19;;;;;;;46.13;24.98;;;8.20;99.90;;;;;;5005943;28;20510;-71
2023/12/19 09:28:45;;;;;;;48.75;22.92;;;8.20;99.90;;;;;;5005187;28;20020;-71
2023/12/19 09:31:11;;;;;;;48.10;24.13;;;8.20;99.90;;;;;;5004778;28;20483;-71
2023/12/19 09:33:38;;;;;;;43.03;22.77;;;8.20;99.90;;;;;;5006288;28;20026;-71
2023/12/19 09:36:18;;;;;;;46.50;23.52;;;8.20;99.90;;;;;;5006502;28;20183;-71
2023/12/19 09:38:45;;;;;;;48.78;21.63;;;8.20;99.90;;;;;;5005028;28;20041;-71
2023/12/19 09:41:11;;;;;;;40.20;20.88;;;8.20;99.90;;;;;;5007229;28;20391;-71
2023/12/19 09:43:36;;;;;;;40.38;20.50;;;8.20;99.90;;;;;;5007547;28;20041;-71
2023/12/19 09:46:02;;;;;;;40.60;21.75;;;8.20;99.90;;;;;;5005192;28;20025;-71
2023/12/19 09:48:36;;;;;;;45.15;21.38;;;8.20;99.90;;;;;;5003915;28;20218;-71
2023/12/19 09:51:09;;;;;;;43.65;21.17;;;8.20;99.90;;;;;;5004576;28;20505;-71
2023/12/19 09:53:35;;;;;;;42.58;20.08;;;8.20;99.90;;;;;;5004919;28;20022;-71
2023/12/19 09:56:01;;;;;;;37.58;20.08;;;8.20;99.90;;;;;;5004784;28;20028;-71
2023/12/19 09:58:31;;;;;;;39.10;19.85;;;8.20;99.90;;;;;;5005062;28;20189;-71
2023/12/19 10:00:59;;;;;;;36.13;18.83;;;8.20;99.90;;;;;;5004440;28;20130;-71
2023/12/19 10:03:27;;;;;;;39.22;19.52;;;8.20;99.90;;;;;;5004867;28;20811;-71
2023/12/19 10:05:53;;;;;;;37.30;19.00;;;8.20;99.90;;;;;;5006079;28;20029;-71
2023/12/19 10:08:19;;;;;;;34.65;19.55;;;8.20;99.90;;;;;;5007558;28;20026;-71
2023/12/19 10:11:03;;;;;;;36.25;19.08;;;8.30;99.90;;;;;;5004585;28;20153;-71
2023/12/19 10:13:33;;;;;;;41.47;19.45;;;8.30;99.90;;;;;;5006522;28;20025;-71
2023/12/19 10:16:06;;;;;;;34.40;18.65;;;8.30;99.90;;;;;;5005862;28;20022;-71
2023/12/19 10:18:33;;;;;;;40.40;19.23;;;8.30;99.90;;;;;;5006366;28;20120;-71
2023/12/19 10:21:14;;;;;;;32.70;17.80;;;8.30;99.90;;;;;;5005969;28;20026;-71
2023/12/19 10:23:41;;;;;;;34.97;17.75;;;8.30;99.90;;;;;;5005109;28;20026;-71
2023/12/19 10:26:07;;;;;;;35.95;18.63;;;8.30;99.90;;;;;;5005645;28;20499;-71
2023/12/19 10:28:33;;;;;;;35.78;18.80;;;8.30;99.90;;;;;;5010317;28;20104;-71
2023/12/19 10:31:15;;;;;;;39.65;19.90;;;8.30;99.90;;;;;;5004396;28;20022;-71
2023/12/19 10:33:45;;;;;;;37.63;18.67;;;8.30;99.90;;;;;;5004780;28;20435;-72
2023/12/19 10:36:30;;;;;;;36.95;19.08;;;8.30;99.90;;;;;;5005699;28;20056;-71
2023/12/19 10:38:58;;;;;;;32.78;18.67;;;8.30;99.90;;;;;;5006014;28;20038;-71
2023/12/19 10:41:31;;;;;;;34.50;19.00;;;8.30;99.90;;;;;;5005406;28;20141;-71
2023/12/19 10:43:59;;;;;;;31.48;18.15;;;8.30;99.90;;;;;;4964011;28;1316238;-71
2023/12/19 10:46:29;;;;;;;35.85;19.20;;;8.30;99.90;;;;;;5009876;28;20546;-72
2023/12/19 10:48:58;;;;;;;30.35;18.05;;;8.30;99.90;;;;;;5010895;28;20022;-71
2023/12/19 10:51:41;;;;;;;32.45;18.75;;;8.30;99.90;;;;;;5005889;28;20409;-71
2023/12/19 10:54:14;;;;;;;33.35;18.02;;;8.30;99.90;;;;;;5006958;28;20018;-71
2023/12/19 10:57:02;;;;;;;36.55;19.00;;;8.30;99.90;;;;;;5008434;28;20037;-71
2023/12/19 10:59:47;;;;;;;33.33;17.77;;;8.30;99.90;;;;;;5010581;28;20041;-71
2023/12/19 11:02:31;;;;;;;32.35;17.65;;;8.30;99.90;;;;;;5007568;28;20415;-71
2023/12/19 11:05:08;;;;;;;31.48;17.65;;;8.30;99.90;;;;;;5009938;28;20495;-71
2023/12/19 11:07:35;;;;;;;29.42;15.90;;;8.30;99.90;;;;;;5010593;28;20029;-71
2023/12/19 11:10:06;;;;;;;31.92;16.85;;;8.30;99.90;;;;;;5009969;28;20010;-71
2023/12/19 11:12:33;;;;;;;28.50;15.52;;;8.30;99.90;;;;;;5010177;28;20101;-71
2023/12/19 11:14:59;;;;;;;32.38;16.88;;;8.30;99.90;;;;;;5004319;28;20037;-71
2023/12/19 11:17:32;;;;;;;35.97;16.60;;;8.30;99.90;;;;;;5010175;28;20030;-71
2023/12/19 11:20:09;;;;;;;32.55;16.60;;;8.30;99.90;;;;;;5009928;28;20041;-71
2023/12/19 11:22:55;;;;;;;28.65;16.55;;;8.30;99.90;;;;;;5008503;28;20057;-71
2023/12/19 11:25:32;;;;;;;32.05;16.67;;;8.30;99.90;;;;;;5000705;28;20037;-71
2023/12/19 11:28:04;;;;;;;28.02;15.55;;;8.30;99.90;;;;;;5009860;28;20022;-71
2023/12/19 11:30:36;;;;;;;33.13;18.02;;;8.30;99.90;;;;;;4999227;28;20054;-71
2023/12/19 11:33:11;;;;;;;33.67;17.33;;;8.30;99.90;;;;;;5009732;28;20355;-70
2023/12/19 11:35:37;;;;;;;32.17;17.48;;;8.30;99.90;;;;;;5000564;28;20030;-71
2023/12/19 11:38:25;;;;;;;32.35;16.95;;;8.30;99.90;;;;;;5008217;28;20025;-71
2023/12/19 11:40:57;;;;;;;30.85;17.67;;;8.30;99.90;;;;;;5007201;28;20523;-71
2023/12/19 11:43:32;;;;;;;38.35;17.55;;;8.30;99.90;;;;;;5008251;28;20045;-71
2023/12/19 11:46:03;;;;;;;32.28;17.63;;;8.30;99.90;;;;;;5007801;28;20041;-71
2023/12/19 11:48:46;;;;;;;33.38;17.10;;;8.30;99.90;;;;;;5008684;28;20038;-71
2023/12/19 11:51:13;;;;;;;30.02;15.95;;;8.40;99.90;;;;;;5007573;28;20025;-71
2023/12/19 11:53:41;;;;;;;30.48;15.98;;;8.40;99.90;;;;;;5008886;28;20014;-70
2023/12/19 11:56:13;;;;;;;31.67;16.42;;;8.40;99.90;;;;;;5005304;28;20026;-71
2023/12/19 11:58:52;;;;;;;29.40;15.45;;;8.40;99.90;;;;;;5008539;28;20084;-71
2023/12/19 12:01:22;;;;;;;30.83;15.80;;;8.40;99.90;;;;;;5007221;28;20044;-70
2023/12/19 12:03:47;;;;;;;25.92;15.38;;;8.40;99.90;;;;;;5008864;28;20513;-71
2023/12/19 12:06:17;;;;;;;38.25;17.17;;;8.40;99.90;;;;;;5008624;28;20030;-71
2023/12/19 12:08:54;;;;;;;30.88;16.13;;;8.40;99.90;;;;;;5009332;28;20088;-71
2023/12/19 12:11:20;;;;;;;28.10;14.55;;;8.40;99.90;;;;;;5011272;28;20021;-71
2023/12/19 12:14:03;;;;;;;31.25;16.77;;;8.40;99.90;;;;;;5008775;28;20034;-71
2023/12/19 12:16:38;;;;;;;29.08;15.63;;;8.40;99.90;;;;;;5008709;28;20491;-71
2023/12/19 12:19:19;;;;;;;26.83;15.30;;;8.40;99.90;;;;;;5008918;28;20025;-71
2023/12/19 12:21:46;;;;;;;27.33;14.18;;;8.30;99.90;;;;;;5007012;28;20113;-71
2023/12/19 12:24:23;;;;;;;25.23;14.25;;;8.40;99.90;;;;;;5007330;28;20052;-70
2023/12/19 12:26:50;;;;;;;26.27;13.55;;;8.40;99.90;;;;;;5008318;28;20113;-71
2023/12/19 12:29:17;;;;;;;23.50;13.75;;;8.30;99.90;;;;;;5008421;28;20104;-70
2023/12/19 12:31:46;;;;;;;21.40;13.15;;;8.40;99.90;;;;;;5004636;28;20017;-71
2023/12/19 12:34:12;;;;;;;22.10;12.70;;;8.40;99.90;;;;;;5001940;28;20581;-70
2023/12/19 12:36:38;;;;;;;22.80;13.35;;;8.40;99.90;;;;;;5008449;28;20061;-70
2023/12/19 12:39:04;;;;;;;22.58;12.10;;;8.40;99.90;;;;;;5004552;28;20053;-71